Time;durP1;ratioP1;P1;durP2;ratioP2;P2;SDS_P1;SDS_P2;PMS_P1;PMS_P2;Temp;Humidity;BMP_temperature;BMP_pressure;BME280_temperature;BME280_humidity;BME280_pressure;Samples;Min_cycle;Max_cycle;Signal;HPM_P1;HPM_P2
2023/09/05 00:00:16;;;;;;;4.60;1.90;;;16.70;99.90;;;;;;5038331;28;20055;-52
2023/09/05 00:02:44;;;;;;;5.18;2.40;;;16.70;99.90;;;;;;5019929;28;20068;-51
2023/09/05 00:05:11;;;;;;;3.20;1.70;;;16.70;99.90;;;;;;5038940;28;20033;-53
2023/09/05 00:07:39;;;;;;;7.18;2.40;;;16.70;99.90;;;;;;5037717;28;20056;-53
2023/09/05 00:10:07;;;;;;;3.30;1.75;;;16.70;99.90;;;;;;5038211;28;20029;-51
2023/09/05 00:12:33;;;;;;;4.63;1.65;;;16.70;99.90;;;;;;5037980;28;20029;-51
2023/09/05 00:14:59;;;;;;;4.47;2.15;;;16.60;99.90;;;;;;5038034;28;20038;-50
2023/09/05 00:17:25;;;;;;;5.03;2.40;;;16.60;99.90;;;;;;5038208;28;20030;-53
2023/09/05 00:19:51;;;;;;;3.67;1.65;;;16.60;99.90;;;;;;5020038;28;20029;-53
2023/09/05 00:22:19;;;;;;;2.95;1.38;;;16.50;99.90;;;;;;5037248;28;20046;-54
2023/09/05 00:24:44;;;;;;;5.75;1.85;;;16.50;99.90;;;;;;5037077;28;20037;-54
2023/09/05 00:27:11;;;;;;;3.95;1.85;;;16.50;99.90;;;;;;5037714;28;20504;-52
2023/09/05 00:29:38;;;;;;;7.00;1.55;;;16.50;99.90;;;;;;5037490;28;20493;-52
2023/09/05 00:32:04;;;;;;;3.78;1.85;;;16.50;99.90;;;;;;5037943;28;20037;-52
2023/09/05 00:34:34;;;;;;;2.85;1.88;;;16.50;99.90;;;;;;5038106;28;20414;-55
2023/09/05 00:37:03;;;;;;;4.97;2.15;;;16.50;99.90;;;;;;5020152;28;20041;-50
2023/09/05 00:39:29;;;;;;;4.00;1.75;;;16.50;99.90;;;;;;5003491;28;20071;-53
2023/09/05 00:41:56;;;;;;;4.05;2.13;;;16.50;99.90;;;;;;5020073;28;20042;-55
2023/09/05 00:44:23;;;;;;;3.97;1.95;;;16.50;99.90;;;;;;5037693;28;20057;-53
2023/09/05 00:46:49;;;;;;;4.82;2.00;;;16.50;99.90;;;;;;5019573;28;20087;-54
2023/09/05 00:49:16;;;;;;;4.28;1.90;;;16.50;99.90;;;;;;5037240;28;20411;-54
2023/09/05 00:51:45;;;;;;;3.78;1.45;;;16.50;99.90;;;;;;5020379;28;20393;-55
2023/09/05 00:54:12;;;;;;;3.35;1.77;;;16.50;99.90;;;;;;5019259;28;20057;-55
2023/09/05 00:56:38;;;;;;;5.25;1.98;;;16.60;99.90;;;;;;5003496;28;20040;-55
2023/09/05 00:59:05;;;;;;;2.88;1.73;;;16.50;99.90;;;;;;5018994;28;20486;-55
2023/09/05 01:01:30;;;;;;;4.05;1.60;;;16.60;99.90;;;;;;5019534;28;20120;-53
2023/09/05 01:03:57;;;;;;;4.05;1.60;;;16.60;99.90;;;;;;5019584;28;20076;-53
2023/09/05 01:06:55;;;;;;;2.90;1.55;;;16.60;99.90;;;;;;5037517;28;20093;-53
2023/09/05 01:09:40;;;;;;;3.53;1.60;;;16.60;99.90;;;;;;5019543;28;20536;-54
2023/09/05 01:12:07;;;;;;;4.63;1.75;;;16.60;99.90;;;;;;5019686;28;20051;-53
2023/09/05 01:14:32;;;;;;;3.88;1.48;;;16.70;99.90;;;;;;5038000;28;20055;-51
2023/09/05 01:17:05;;;;;;;3.72;1.90;;;16.70;99.90;;;;;;5037213;28;20029;-54
2023/09/05 01:19:34;;;;;;;2.75;1.60;;;16.80;99.90;;;;;;5019619;28;20035;-54
2023/09/05 01:22:13;;;;;;;3.22;1.50;;;16.80;99.90;;;;;;5037153;28;20028;-52
2023/09/05 01:24:40;;;;;;;4.30;1.77;;;16.80;99.90;;;;;;5019935;28;20030;-54
2023/09/05 01:27:08;;;;;;;3.20;1.80;;;16.70;99.90;;;;;;5037730;28;20038;-50
2023/09/05 01:29:35;;;;;;;3.45;1.80;;;16.70;99.90;;;;;;5038040;28;20394;-55
2023/09/05 01:32:05;;;;;;;4.57;1.85;;;16.70;99.90;;;;;;5019678;28;20053;-54
2023/09/05 01:34:32;;;;;;;3.47;1.67;;;16.70;99.90;;;;;;5020117;28;20152;-55
2023/09/05 01:36:58;;;;;;;2.90;1.50;;;16.70;99.90;;;;;;5020580;28;20049;-51
2023/09/05 01:39:23;;;;;;;2.33;1.38;;;16.70;99.90;;;;;;5020101;28;20025;-52
2023/09/05 01:41:50;;;;;;;5.07;1.65;;;16.70;99.90;;;;;;5037540;28;20056;-50
2023/09/05 01:44:16;;;;;;;3.25;1.65;;;16.60;99.90;;;;;;5019407;28;20029;-51
2023/09/05 01:46:42;;;;;;;3.15;1.50;;;16.60;99.90;;;;;;5020017;28;20026;-49
2023/09/05 01:49:08;;;;;;;2.50;1.55;;;16.60;99.90;;;;;;5020373;28;20069;-50
2023/09/05 01:51:34;;;;;;;3.42;1.77;;;16.60;99.90;;;;;;5028904;28;20022;-53
2023/09/05 01:53:59;;;;;;;3.10;1.85;;;16.50;99.90;;;;;;5028253;28;20041;-50
2023/09/05 01:56:25;;;;;;;4.93;1.63;;;16.40;99.90;;;;;;5022933;28;20042;-51
2023/09/05 01:58:51;;;;;;;3.72;2.22;;;16.40;99.90;;;;;;5022379;28;20047;-51
2023/09/05 02:01:16;;;;;;;3.90;1.83;;;16.50;99.90;;;;;;5023742;28;20100;-54
2023/09/05 02:03:42;;;;;;;6.20;1.90;;;16.40;99.90;;;;;;5024115;28;20026;-52
2023/09/05 02:06:08;;;;;;;3.13;1.70;;;16.40;99.90;;;;;;5009041;28;20026;-50
2023/09/05 02:08:34;;;;;;;4.65;1.77;;;16.40;99.90;;;;;;5040205;28;20031;-50
2023/09/05 02:11:01;;;;;;;3.95;1.52;;;16.50;99.90;;;;;;5019561;28;20057;-51
2023/09/05 02:13:28;;;;;;;3.05;1.40;;;16.70;99.90;;;;;;5022113;28;20060;-50
2023/09/05 02:15:55;;;;;;;7.32;1.48;;;16.70;99.90;;;;;;5006241;28;20048;-51
2023/09/05 02:18:20;;;;;;;1.92;1.20;;;16.80;99.90;;;;;;5018317;28;20029;-50
2023/09/05 02:20:46;;;;;;;2.45;1.30;;;16.90;99.90;;;;;;5019990;28;20077;-51
2023/09/05 02:23:12;;;;;;;2.22;1.35;;;16.90;99.90;;;;;;5020052;28;20490;-53
2023/09/05 02:25:38;;;;;;;3.95;1.55;;;17.00;99.90;;;;;;5019792;28;20529;-53
2023/09/05 02:28:04;;;;;;;2.67;1.40;;;17.00;99.90;;;;;;5037681;28;20498;-52
2023/09/05 02:30:30;;;;;;;2.88;1.45;;;17.10;99.90;;;;;;5037077;28;20064;-54
2023/09/05 02:32:56;;;;;;;3.08;1.23;;;17.00;99.90;;;;;;5018595;28;20064;-52
2023/09/05 02:35:27;;;;;;;2.17;1.20;;;17.00;99.90;;;;;;5019784;28;20045;-53
2023/09/05 02:37:54;;;;;;;2.45;1.10;;;17.10;99.90;;;;;;5036937;28;20033;-53
2023/09/05 02:40:20;;;;;;;2.25;1.20;;;17.10;99.90;;;;;;5019807;28;20036;-53
2023/09/05 02:42:46;;;;;;;2.75;1.20;;;17.10;99.90;;;;;;5036795;28;20021;-52
2023/09/05 02:45:13;;;;;;;3.30;1.40;;;17.10;99.90;;;;;;5018982;28;20169;-52
2023/09/05 02:47:40;;;;;;;2.13;1.13;;;17.10;99.90;;;;;;5019341;28;20022;-52
2023/09/05 02:50:06;;;;;;;3.45;1.40;;;17.10;99.90;;;;;;5002658;28;20092;-53
2023/09/05 02:52:33;;;;;;;3.60;1.25;;;17.00;99.90;;;;;;5036707;28;20029;-52
2023/09/05 02:54:59;;;;;;;2.92;1.40;;;17.00;99.90;;;;;;5018865;28;20033;-53
2023/09/05 02:57:24;;;;;;;2.70;1.38;;;17.00;99.90;;;;;;5036710;28;20103;-53
2023/09/05 02:59:53;;;;;;;2.00;1.20;;;16.90;99.90;;;;;;5019018;28;20033;-50
2023/09/05 03:02:22;;;;;;;3.90;1.50;;;16.90;99.90;;;;;;5018574;28;20029;-51
2023/09/05 03:04:51;;;;;;;3.60;1.63;;;16.90;99.90;;;;;;5036103;28;20029;-50
2023/09/05 03:07:18;;;;;;;3.25;1.60;;;16.90;99.90;;;;;;5018954;28;20033;-53
2023/09/05 03:09:44;;;;;;;4.53;1.80;;;16.90;99.90;;;;;;5018454;28;20033;-51
2023/09/05 03:12:09;;;;;;;2.78;1.48;;;16.90;99.90;;;;;;5036277;28;20517;-51
2023/09/05 03:14:35;;;;;;;3.70;1.40;;;16.80;99.90;;;;;;5017583;28;20045;-51
2023/09/05 03:17:03;;;;;;;3.58;1.50;;;16.80;99.90;;;;;;5017304;28;20022;-54
2023/09/05 03:19:28;;;;;;;2.53;1.30;;;16.80;99.90;;;;;;5017463;28;20506;-51
2023/09/05 03:21:54;;;;;;;1.98;1.13;;;16.80;99.90;;;;;;5034741;28;20060;-53
2023/09/05 03:24:21;;;;;;;3.88;1.60;;;16.70;99.90;;;;;;5020603;28;20481;-52
2023/09/05 03:26:47;;;;;;;2.00;1.25;;;16.70;99.90;;;;;;5021214;28;20021;-50
2023/09/05 03:29:14;;;;;;;3.38;1.52;;;16.70;99.90;;;;;;5020713;28;20100;-50
2023/09/05 03:31:40;;;;;;;3.88;1.30;;;16.70;99.90;;;;;;5021036;28;20036;-51
2023/09/05 03:34:08;;;;;;;2.72;1.58;;;16.80;99.90;;;;;;5020827;28;20172;-53
2023/09/05 03:36:35;;;;;;;3.30;1.52;;;16.90;99.90;;;;;;5020870;28;20029;-50
2023/09/05 03:39:01;;;;;;;3.58;1.70;;;16.90;99.90;;;;;;5020814;28;20520;-51
2023/09/05 03:41:27;;;;;;;4.00;1.52;;;16.90;99.90;;;;;;5037870;28;20030;-54
2023/09/05 03:43:54;;;;;;;2.28;1.35;;;16.90;99.90;;;;;;5020461;28;20025;-53
2023/09/05 03:46:19;;;;;;;3.40;1.90;;;16.90;99.90;;;;;;5020080;28;20030;-53
2023/09/05 03:48:46;;;;;;;3.25;1.73;;;16.80;99.90;;;;;;5019796;28;20029;-51
2023/09/05 03:51:11;;;;;;;4.65;2.50;;;16.80;99.90;;;;;;5018081;28;20056;-56
2023/09/05 03:53:37;;;;;;;4.57;2.10;;;16.70;99.90;;;;;;5019021;28;20048;-54
2023/09/05 03:56:03;;;;;;;5.50;2.25;;;16.70;99.90;;;;;;5039102;28;20154;-54
2023/09/05 03:58:29;;;;;;;4.55;1.95;;;16.60;99.90;;;;;;5038589;28;20026;-52
2023/09/05 04:00:58;;;;;;;5.55;2.28;;;16.60;99.90;;;;;;5021212;28;20033;-53
2023/09/05 04:03:26;;;;;;;5.32;2.17;;;16.50;99.90;;;;;;5020749;28;20026;-52
2023/09/05 04:05:52;;;;;;;3.63;1.95;;;16.40;99.90;;;;;;5039012;28;20071;-52
2023/09/05 04:08:18;;;;;;;3.67;1.98;;;16.40;99.90;;;;;;5020203;28;20030;-55
2023/09/05 04:10:43;;;;;;;3.55;2.17;;;16.40;99.90;;;;;;5038204;28;20084;-54
2023/09/05 04:13:09;;;;;;;3.53;1.83;;;16.30;99.90;;;;;;5038351;28;20505;-53
2023/09/05 04:15:36;;;;;;;4.63;1.98;;;16.30;99.90;;;;;;5039017;28;20099;-53
2023/09/05 04:18:04;;;;;;;3.95;2.03;;;16.30;99.90;;;;;;5038476;28;20025;-52
2023/09/05 04:20:31;;;;;;;3.90;1.83;;;16.30;99.90;;;;;;5020660;28;20168;-53
2023/09/05 04:22:57;;;;;;;6.00;2.15;;;16.20;99.90;;;;;;5020287;28;20025;-53
2023/09/05 04:25:26;;;;;;;3.90;2.03;;;16.20;99.90;;;;;;5020208;28;20171;-53
2023/09/05 04:27:51;;;;;;;5.13;2.10;;;16.20;99.90;;;;;;5019942;28;20474;-51
2023/09/05 04:30:17;;;;;;;7.10;1.92;;;16.20;99.90;;;;;;5020273;28;20040;-53
2023/09/05 04:32:43;;;;;;;5.50;2.45;;;16.10;99.90;;;;;;5019749;28;20041;-52
2023/09/05 04:35:10;;;;;;;4.63;2.55;;;16.10;99.90;;;;;;5037511;28;20075;-52
2023/09/05 04:37:36;;;;;;;6.03;2.20;;;16.10;99.90;;;;;;5020293;28;20156;-55
2023/09/05 04:40:07;;;;;;;5.15;2.08;;;16.10;99.90;;;;;;5004123;28;20028;-53
2023/09/05 04:42:33;;;;;;;5.45;2.40;;;16.10;99.90;;;;;;5020068;28;20036;-51
2023/09/05 04:44:58;;;;;;;4.07;2.35;;;16.10;99.90;;;;;;5037564;28;20486;-50
2023/09/05 04:47:28;;;;;;;5.03;2.13;;;16.10;99.90;;;;;;5020061;28;20467;-51
2023/09/05 04:49:58;;;;;;;6.22;2.25;;;16.00;99.90;;;;;;5037704;28;20509;-52
2023/09/05 04:52:29;;;;;;;5.55;2.15;;;16.00;99.90;;;;;;5037698;28;20033;-51
2023/09/05 04:54:56;;;;;;;4.50;1.80;;;16.00;99.90;;;;;;5037530;28;20048;-54
2023/09/05 04:57:22;;;;;;;5.07;2.28;;;16.00;99.90;;;;;;5037339;28;20036;-54
2023/09/05 04:59:47;;;;;;;3.92;2.00;;;15.90;99.90;;;;;;5019227;28;20069;-53
2023/09/05 05:02:16;;;;;;;5.43;2.25;;;15.90;99.90;;;;;;5037920;28;20040;-54
2023/09/05 05:04:45;;;;;;;;;;;15.90;99.90;;;;;;5038320;28;20104;-55
2023/09/05 05:07:11;;;;;;;5.90;2.30;;;15.90;99.90;;;;;;5036829;28;19909;-54
2023/09/05 05:09:40;;;;;;;5.15;2.42;;;15.90;99.90;;;;;;5036827;28;20033;-55
2023/09/05 05:12:06;;;;;;;6.07;2.35;;;15.80;99.90;;;;;;5036710;28;20555;-52
2023/09/05 05:14:32;;;;;;;4.82;2.03;;;15.80;99.90;;;;;;5037331;28;20037;-55
2023/09/05 05:16:57;;;;;;;6.72;2.38;;;15.80;99.90;;;;;;5037230;28;20037;-51
2023/09/05 05:19:23;;;;;;;5.57;2.30;;;15.80;99.90;;;;;;5038275;28;20036;-51
2023/09/05 05:21:52;;;;;;;5.50;2.47;;;15.80;99.90;;;;;;5036921;28;20037;-55
2023/09/05 05:24:17;;;;;;;5.45;2.33;;;15.80;99.90;;;;;;5019487;28;20112;-54
2023/09/05 05:26:44;;;;;;;6.13;2.72;;;15.80;99.90;;;;;;5036751;28;20052;-54
2023/09/05 05:29:10;;;;;;;4.63;2.35;;;15.80;99.90;;;;;;5036498;28;20076;-55
2023/09/05 05:31:37;;;;;;;6.32;2.65;;;15.80;99.90;;;;;;5037043;28;20042;-53
2023/09/05 05:34:03;;;;;;;4.13;2.67;;;15.80;99.90;;;;;;5036642;28;20064;-50
2023/09/05 05:36:29;;;;;;;7.20;3.47;;;15.80;99.90;;;;;;5019183;28;20406;-54
2023/09/05 05:39:01;;;;;;;6.75;3.20;;;15.80;99.90;;;;;;5037083;28;20052;-54
2023/09/05 05:41:27;;;;;;;8.45;3.75;;;15.80;99.90;;;;;;5036563;28;20033;-54
2023/09/05 05:43:54;;;;;;;11.63;3.88;;;15.80;99.90;;;;;;5035635;28;20116;-53
2023/09/05 05:46:19;;;;;;;6.60;3.40;;;15.80;99.90;;;;;;5036753;28;20029;-51
2023/09/05 05:48:45;;;;;;;7.30;3.33;;;15.90;99.90;;;;;;5036020;28;20025;-55
2023/09/05 05:51:12;;;;;;;8.15;3.45;;;15.90;99.90;;;;;;5018652;28;20061;-52
2023/09/05 05:53:38;;;;;;;7.47;3.67;;;15.90;99.90;;;;;;5036189;28;20037;-55
2023/09/05 05:56:04;;;;;;;6.25;2.90;;;15.90;99.90;;;;;;5036894;28;20072;-54
2023/09/05 05:58:30;;;;;;;6.47;3.40;;;16.00;99.90;;;;;;5035974;28;20029;-55
2023/09/05 06:00:57;;;;;;;8.35;3.92;;;16.00;99.90;;;;;;5035566;28;20037;-53
2023/09/05 06:03:23;;;;;;;7.80;3.47;;;16.10;99.90;;;;;;5018030;28;20039;-55
2023/09/05 06:05:50;;;;;;;6.75;3.50;;;16.10;99.90;;;;;;5035144;28;20489;-57
2023/09/05 06:08:16;;;;;;;5.90;2.97;;;16.20;99.90;;;;;;5035514;28;20104;-51
2023/09/05 06:10:42;;;;;;;6.53;2.92;;;16.30;99.90;;;;;;5035367;28;20029;-53
2023/09/05 06:13:08;;;;;;;7.72;3.53;;;16.30;99.90;;;;;;5035637;28;20112;-54
2023/09/05 06:15:34;;;;;;;6.30;3.13;;;16.30;99.90;;;;;;5036008;28;20037;-54
2023/09/05 06:18:01;;;;;;;8.68;3.47;;;16.40;99.90;;;;;;5036025;28;20038;-53
2023/09/05 06:20:28;;;;;;;6.38;2.85;;;16.50;99.90;;;;;;5035215;28;20026;-54
2023/09/05 06:22:54;;;;;;;7.63;3.33;;;16.60;99.90;;;;;;5018048;28;20033;-53
2023/09/05 06:25:20;;;;;;;6.93;2.88;;;16.60;99.90;;;;;;5035994;28;20063;-55
2023/09/05 06:27:46;;;;;;;7.07;2.95;;;16.70;99.90;;;;;;5036132;28;20030;-56
2023/09/05 06:30:13;;;;;;;7.13;3.55;;;16.80;99.90;;;;;;5035090;28;20078;-55
2023/09/05 06:32:39;;;;;;;6.05;3.33;;;16.90;99.90;;;;;;5017563;28;20128;-51
2023/09/05 06:35:05;;;;;;;7.78;3.63;;;17.00;99.90;;;;;;5035592;28;20557;-56
2023/09/05 06:37:33;;;;;;;6.15;3.00;;;17.20;99.90;;;;;;5035624;28;20029;-55
2023/09/05 06:40:00;;;;;;;5.82;3.08;;;17.30;99.90;;;;;;5035697;28;20045;-54
2023/09/05 06:42:26;;;;;;;11.93;5.20;;;17.50;99.90;;;;;;5017771;28;20124;-54
2023/09/05 06:44:52;;;;;;;9.85;3.85;;;17.60;99.90;;;;;;5035280;28;20501;-54
2023/09/05 06:47:17;;;;;;;6.57;3.58;;;17.70;99.90;;;;;;5035999;28;20029;-53
2023/09/05 06:49:43;;;;;;;6.72;2.80;;;17.80;99.90;;;;;;5035800;28;20117;-52
2023/09/05 06:52:09;;;;;;;9.10;3.17;;;18.00;99.90;;;;;;5035469;28;20033;-51
2023/09/05 06:54:35;;;;;;;6.50;2.50;;;18.10;99.90;;;;;;5035246;28;20037;-53
2023/09/05 06:57:01;;;;;;;3.92;2.10;;;18.30;99.90;;;;;;5035899;28;20116;-53
2023/09/05 06:59:27;;;;;;;4.10;1.98;;;18.50;99.90;;;;;;5039344;28;20033;-51
2023/09/05 07:01:53;;;;;;;5.38;2.28;;;18.70;99.90;;;;;;5039345;28;20189;-52
2023/09/05 07:04:19;;;;;;;5.88;2.22;;;19.00;99.90;;;;;;5039441;28;20030;-52
2023/09/05 07:06:47;;;;;;;3.38;1.83;;;19.20;99.90;;;;;;5039782;28;20036;-54
2023/09/05 07:09:14;;;;;;;3.63;1.73;;;19.60;99.90;;;;;;5039159;28;20189;-53
2023/09/05 07:11:40;;;;;;;3.85;2.25;;;19.90;99.90;;;;;;5038943;28;20044;-53
2023/09/05 07:14:06;;;;;;;3.42;1.60;;;20.10;99.90;;;;;;5039601;28;20097;-52
2023/09/05 07:16:31;;;;;;;3.97;1.70;;;20.50;99.90;;;;;;5038956;28;20030;-53
2023/09/05 07:18:57;;;;;;;4.15;1.73;;;20.80;99.90;;;;;;5039142;28;20030;-54
2023/09/05 07:21:23;;;;;;;2.97;1.33;;;21.00;99.90;;;;;;5038663;28;20159;-53
2023/09/05 07:23:48;;;;;;;2.70;1.60;;;21.30;99.90;;;;;;5039579;28;20036;-51
2023/09/05 07:26:14;;;;;;;2.33;1.25;;;21.60;99.90;;;;;;5039889;28;20509;-50
2023/09/05 07:28:39;;;;;;;3.20;1.30;;;21.60;99.90;;;;;;5039519;28;20041;-52
2023/09/05 07:31:05;;;;;;;2.83;1.30;;;21.90;99.90;;;;;;5022421;28;20060;-51
2023/09/05 07:33:31;;;;;;;4.82;1.65;;;22.00;99.90;;;;;;5038879;28;20212;-53
2023/09/05 07:35:58;;;;;;;6.63;1.90;;;22.20;99.90;;;;;;5040379;28;20034;-54
2023/09/05 07:38:23;;;;;;;4.75;1.50;;;22.40;99.90;;;;;;5038806;28;20045;-54
2023/09/05 07:41:03;;;;;;;4.68;2.42;;;22.50;99.90;;;;;;5038628;28;20025;-53
2023/09/05 07:43:30;;;;;;;6.22;2.95;;;22.70;99.90;;;;;;5038494;28;20029;-53
2023/09/05 07:45:56;;;;;;;3.00;1.80;;;22.70;99.90;;;;;;5020554;28;20041;-53
2023/09/05 07:48:21;;;;;;;3.47;1.80;;;22.90;99.90;;;;;;5038264;28;20034;-52
2023/09/05 07:50:47;;;;;;;3.63;1.80;;;23.10;99.90;;;;;;5039202;28;20033;-52
2023/09/05 07:53:13;;;;;;;3.05;1.60;;;23.20;99.90;;;;;;5037740;28;20114;-52
2023/09/05 07:55:39;;;;;;;3.22;1.45;;;23.20;99.90;;;;;;5021043;28;20471;-52
2023/09/05 07:58:04;;;;;;;4.15;1.80;;;23.30;99.90;;;;;;5038373;28;20041;-54
2023/09/05 08:00:30;;;;;;;2.55;1.42;;;23.30;99.90;;;;;;5037709;28;20112;-52
2023/09/05 08:02:56;;;;;;;4.40;2.05;;;23.40;99.90;;;;;;5036740;28;20074;-54
2023/09/05 08:05:21;;;;;;;3.50;1.73;;;23.50;99.90;;;;;;5036200;28;20026;-54
2023/09/05 08:07:48;;;;;;;2.42;1.40;;;23.60;99.90;;;;;;5038124;28;20040;-52
2023/09/05 08:10:14;;;;;;;2.92;1.38;;;23.70;99.90;;;;;;5035590;28;20033;-54
2023/09/05 08:12:39;;;;;;;3.47;1.75;;;23.70;99.90;;;;;;5037690;28;20044;-51
2023/09/05 08:15:05;;;;;;;2.40;1.50;;;23.90;99.90;;;;;;5038432;28;20111;-51
2023/09/05 08:17:31;;;;;;;4.13;1.63;;;23.90;99.90;;;;;;5038163;28;20180;-53
2023/09/05 08:19:58;;;;;;;5.75;1.60;;;23.90;99.80;;;;;;5038441;28;20036;-54
2023/09/05 08:22:24;;;;;;;1.95;1.10;;;23.90;99.90;;;;;;5038996;28;20029;-54
2023/09/05 08:24:50;;;;;;;4.10;1.73;;;24.10;99.60;;;;;;5038175;28;20389;-55
2023/09/05 08:27:16;;;;;;;1.90;1.30;;;24.20;99.90;;;;;;5021101;28;20386;-52
2023/09/05 08:29:42;;;;;;;4.20;1.55;;;24.20;99.50;;;;;;5038390;28;20036;-52
2023/09/05 08:32:07;;;;;;;2.90;1.48;;;24.30;99.40;;;;;;5038704;28;20112;-52
2023/09/05 08:34:33;;;;;;;3.63;1.60;;;24.30;99.10;;;;;;5021037;28;20044;-54
2023/09/05 08:36:59;;;;;;;3.80;1.55;;;24.30;99.40;;;;;;5020211;28;20430;-53
2023/09/05 08:39:26;;;;;;;4.50;1.45;;;24.40;98.50;;;;;;5020316;28;20525;-54
2023/09/05 08:41:53;;;;;;;4.03;1.65;;;24.50;98.80;;;;;;5038249;28;20026;-55
2023/09/05 08:44:18;;;;;;;5.18;1.70;;;24.50;99.10;;;;;;5038082;28;20091;-51
2023/09/05 08:46:45;;;;;;;2.53;1.40;;;24.60;98.80;;;;;;5038339;28;20033;-51
2023/09/05 08:49:11;;;;;;;3.35;1.60;;;24.70;98.50;;;;;;5037698;28;20100;-54
2023/09/05 08:51:39;;;;;;;5.15;1.95;;;24.70;98.30;;;;;;5037352;28;20501;-52
2023/09/05 08:54:06;;;;;;;3.60;1.58;;;24.70;98.20;;;;;;5003810;28;20428;-54
2023/09/05 08:56:33;;;;;;;2.20;1.20;;;24.90;98.70;;;;;;5038439;28;20116;-49
2023/09/05 08:59:01;;;;;;;2.83;1.42;;;25.00;98.00;;;;;;5037247;28;20444;-51
2023/09/05 09:01:29;;;;;;;3.70;1.30;;;25.10;97.60;;;;;;5037613;28;20040;-53
2023/09/05 09:03:55;;;;;;;3.20;1.27;;;25.20;98.10;;;;;;5038214;28;20036;-53
2023/09/05 09:06:25;;;;;;;2.80;1.48;;;25.20;97.30;;;;;;5038181;28;20534;-50
2023/09/05 09:08:53;;;;;;;2.05;1.35;;;25.30;96.70;;;;;;5038088;28;20090;-53
2023/09/05 09:11:21;;;;;;;2.22;1.10;;;25.30;97.00;;;;;;5037877;28;20033;-54
2023/09/05 09:13:51;;;;;;;1.95;1.00;;;25.40;97.10;;;;;;5038209;28;20532;-51
2023/09/05 09:16:18;;;;;;;1.60;1.00;;;25.50;96.80;;;;;;5038190;28;20037;-49
2023/09/05 09:18:49;;;;;;;2.45;1.08;;;25.50;97.10;;;;;;5037983;28;20556;-53
2023/09/05 09:21:18;;;;;;;2.35;1.10;;;25.60;97.00;;;;;;5019484;28;20059;-50
2023/09/05 09:23:44;;;;;;;3.10;1.30;;;25.60;96.00;;;;;;5019581;28;20033;-51
2023/09/05 09:26:13;;;;;;;2.95;1.25;;;25.70;96.30;;;;;;5037319;28;20033;-54
2023/09/05 09:28:39;;;;;;;2.38;1.10;;;25.80;96.40;;;;;;5037229;28;20041;-52
2023/09/05 09:31:13;;;;;;;5.50;1.80;;;26.00;95.70;;;;;;5036067;28;20045;-53
2023/09/05 09:33:40;;;;;;;2.00;1.23;;;26.10;95.20;;;;;;5036532;28;20037;-51
2023/09/05 09:36:10;;;;;;;2.67;1.30;;;26.10;95.50;;;;;;5035355;28;20049;-54
2023/09/05 09:38:38;;;;;;;1.58;1.05;;;26.20;95.20;;;;;;5035133;28;20033;-52
2023/09/05 09:41:06;;;;;;;3.72;1.20;;;26.20;95.40;;;;;;5018190;28;20087;-50
2023/09/05 09:43:34;;;;;;;2.40;1.10;;;26.40;95.30;;;;;;5037174;28;20120;-54
2023/09/05 09:46:03;;;;;;;2.63;0.90;;;26.50;95.20;;;;;;5036687;28;20018;-54
2023/09/05 09:48:30;;;;;;;1.73;0.90;;;26.60;94.50;;;;;;5036768;28;20389;-55
2023/09/05 09:50:57;;;;;;;2.15;1.20;;;26.70;94.10;;;;;;5037039;28;20036;-52
2023/09/05 09:53:38;;;;;;;2.40;1.55;;;26.70;94.20;;;;;;5035995;28;20041;-52
2023/09/05 09:56:11;;;;;;;3.60;1.00;;;26.80;94.00;;;;;;5036886;28;20030;-55
2023/09/05 09:58:40;;;;;;;1.40;0.90;;;27.00;93.90;;;;;;5036355;28;20058;-56
2023/09/05 10:01:11;;;;;;;2.25;1.08;;;27.20;93.30;;;;;;5036533;28;20041;-51
2023/09/05 10:03:44;;;;;;;2.08;0.95;;;27.20;93.70;;;;;;5036375;28;20037;-51
2023/09/05 10:06:10;;;;;;;2.72;1.20;;;27.40;93.40;;;;;;5037029;28;20401;-54
2023/09/05 10:08:37;;;;;;;2.65;1.25;;;27.50;93.20;;;;;;5036382;28;20120;-56
2023/09/05 10:11:03;;;;;;;1.50;0.90;;;27.60;92.50;;;;;;5036639;28;20474;-54
2023/09/05 10:13:33;;;;;;;1.35;1.05;;;27.80;93.00;;;;;;5035610;28;20068;-52
2023/09/05 10:16:02;;;;;;;2.83;1.30;;;28.10;92.50;;;;;;5036029;28;20021;-56
2023/09/05 10:18:38;;;;;;;3.35;1.30;;;28.10;92.00;;;;;;5018566;28;20049;-51
2023/09/05 10:21:04;;;;;;;1.88;0.90;;;28.20;91.50;;;;;;5036442;28;20029;-54
2023/09/05 10:23:32;;;;;;;2.22;0.88;;;28.30;90.90;;;;;;5018376;28;20048;-55
2023/09/05 10:26:03;;;;;;;1.90;1.02;;;28.30;91.50;;;;;;5036105;28;20029;-55
2023/09/05 10:28:29;;;;;;;3.85;1.90;;;28.50;91.80;;;;;;5035916;28;20043;-52
2023/09/05 10:31:05;;;;;;;1.80;1.10;;;28.60;91.90;;;;;;5035743;28;20033;-54
2023/09/05 10:33:37;;;;;;;1.50;0.90;;;28.80;91.10;;;;;;5034286;28;20341;-53
2023/09/05 10:36:03;;;;;;;2.58;1.40;;;29.10;91.10;;;;;;5035710;28;20029;-54
2023/09/05 10:38:32;;;;;;;1.20;0.80;;;29.00;89.20;;;;;;5035503;28;20040;-52
2023/09/05 10:40:59;;;;;;;2.35;0.88;;;29.20;88.00;;;;;;5034856;28;20045;-54
2023/09/05 10:43:25;;;;;;;1.88;0.90;;;29.20;88.70;;;;;;5035668;28;20039;-56
2023/09/05 10:46:12;;;;;;;2.35;0.98;;;29.20;87.80;;;;;;5036003;28;20109;-52
2023/09/05 10:48:45;;;;;;;3.30;1.13;;;29.30;87.60;;;;;;5035800;28;20025;-53
2023/09/05 10:51:14;;;;;;;4.47;1.20;;;29.20;87.50;;;;;;5035665;28;21137;-55
2023/09/05 10:53:45;;;;;;;1.83;0.90;;;29.30;88.20;;;;;;5034972;28;20041;-49
2023/09/05 10:56:45;;;;;;;2.22;1.00;;;29.40;87.80;;;;;;5035883;28;20033;-55
2023/09/05 10:59:25;;;;;;;3.13;0.90;;;29.40;87.40;;;;;;5017803;28;20094;-55
2023/09/05 11:01:56;;;;;;;1.13;0.85;;;29.50;88.80;;;;;;5034966;28;20061;-56
2023/09/05 11:04:27;;;;;;;1.00;0.75;;;29.60;86.70;;;;;;5035826;28;20389;-50
2023/09/05 11:07:04;;;;;;;1.73;1.00;;;29.80;85.60;;;;;;5035711;28;20059;-54
2023/09/05 11:09:40;;;;;;;1.92;0.98;;;29.70;85.90;;;;;;5018367;28;20048;-55
2023/09/05 11:12:06;;;;;;;1.88;1.27;;;29.60;85.40;;;;;;5035165;28;20467;-54
2023/09/05 11:14:33;;;;;;;1.27;0.88;;;29.70;84.10;;;;;;5035370;28;20046;-55
2023/09/05 11:16:59;;;;;;;1.63;1.00;;;29.50;84.30;;;;;;5036116;28;20041;-51
2023/09/05 11:19:38;;;;;;;2.17;1.10;;;29.40;85.70;;;;;;5035750;28;20045;-55
2023/09/05 11:22:17;;;;;;;1.33;0.85;;;29.40;84.70;;;;;;5035269;28;20061;-53
2023/09/05 11:24:54;;;;;;;2.30;1.13;;;29.40;86.30;;;;;;5035900;28;20026;-53
2023/09/05 11:27:28;;;;;;;2.20;1.23;;;29.30;85.30;;;;;;5018048;28;20025;-54
2023/09/05 11:29:57;;;;;;;1.65;0.80;;;29.30;86.10;;;;;;5035707;28;20093;-52
2023/09/05 11:32:31;;;;;;;2.92;1.38;;;29.30;84.70;;;;;;5017577;28;20053;-55
2023/09/05 11:34:58;;;;;;;2.28;1.20;;;29.10;86.10;;;;;;5035335;28;20029;-54
2023/09/05 11:37:24;;;;;;;4.13;2.30;;;29.10;86.80;;;;;;5034923;28;20025;-52
2023/09/05 11:39:51;;;;;;;2.30;0.98;;;29.10;87.40;;;;;;5017257;28;20041;-55
2023/09/05 11:42:22;;;;;;;3.65;1.92;;;29.20;86.70;;;;;;5017743;28;20034;-56
2023/09/05 11:44:49;;;;;;;3.00;1.73;;;29.30;86.40;;;;;;5037476;28;20083;-54
2023/09/05 11:47:15;;;;;;;4.50;2.53;;;29.40;86.40;;;;;;5038503;28;20516;-53
2023/09/05 11:49:41;;;;;;;5.80;3.38;;;29.60;87.00;;;;;;5038824;28;20026;-54
2023/09/05 11:52:09;;;;;;;1.90;0.95;;;29.60;87.40;;;;;;5038710;28;20034;-53
2023/09/05 11:54:35;;;;;;;2.00;1.25;;;29.70;85.40;;;;;;5038296;28;20068;-55
2023/09/05 11:57:02;;;;;;;1.73;1.10;;;29.80;84.20;;;;;;5038722;28;20091;-55
2023/09/05 11:59:29;;;;;;;2.10;0.83;;;29.80;83.00;;;;;;5038380;28;20041;-55
2023/09/05 12:01:55;;;;;;;3.53;1.27;;;29.60;83.40;;;;;;5037808;28;21004;-53
2023/09/05 12:04:22;;;;;;;0.95;0.80;;;29.70;84.20;;;;;;5038779;28;20021;-54
2023/09/05 12:06:51;;;;;;;3.63;0.98;;;29.50;84.00;;;;;;5038357;28;20037;-54
2023/09/05 12:09:20;;;;;;;1.73;1.02;;;29.40;85.60;;;;;;5037733;28;20041;-55
2023/09/05 12:11:48;;;;;;;3.17;1.15;;;29.40;84.40;;;;;;5038122;28;20040;-51
2023/09/05 12:14:16;;;;;;;1.30;0.70;;;29.50;83.40;;;;;;5038349;28;20044;-56
2023/09/05 12:16:46;;;;;;;1.58;0.80;;;29.60;83.50;;;;;;5038746;28;20402;-50
2023/09/05 12:19:12;;;;;;;1.45;0.80;;;29.60;81.70;;;;;;5038053;28;20433;-53
2023/09/05 12:21:42;;;;;;;3.03;1.77;;;29.60;83.30;;;;;;5038169;28;20034;-54
2023/09/05 12:24:22;;;;;;;1.45;0.80;;;29.70;84.00;;;;;;5038420;28;20044;-51
2023/09/05 12:26:52;;;;;;;1.40;0.80;;;29.70;84.10;;;;;;5038354;28;20021;-54
2023/09/05 12:29:21;;;;;;;2.83;0.98;;;29.70;84.50;;;;;;5037666;28;20441;-50
2023/09/05 12:31:48;;;;;;;2.70;1.50;;;29.90;82.30;;;;;;5020000;28;20038;-51
2023/09/05 12:34:14;;;;;;;2.13;1.00;;;29.90;82.70;;;;;;5037640;28;20096;-49
2023/09/05 12:36:40;;;;;;;1.13;0.80;;;29.90;83.10;;;;;;5020071;28;20067;-50
2023/09/05 12:39:05;;;;;;;1.55;0.98;;;29.80;83.10;;;;;;5037425;28;20068;-54
2023/09/05 12:41:31;;;;;;;1.23;0.73;;;29.80;83.30;;;;;;5037005;28;20547;-52
2023/09/05 12:43:58;;;;;;;2.42;1.10;;;29.80;84.60;;;;;;5020034;28;20375;-50
2023/09/05 12:46:24;;;;;;;1.42;0.90;;;30.00;84.20;;;;;;5037206;28;20033;-52
2023/09/05 12:48:54;;;;;;;1.60;1.10;;;30.20;82.30;;;;;;5018871;28;20025;-52